Walton, Nebraska
Current Conditions -  °F | °C
As of 2:54 PM on Thursday 27 Nov 2014 (Local Time) from KLNK Reporting Station
Clear Clear  
Wind Chill: 22°   Ceiling: Unl
Heat Index: 31°   Visibility: 10mi
Dew Point: 13°   Wind: 12mph
Humidity: 47%   Direction: 130°SE
Pressure: 30.33"   Gusts: NA
Location:  40.8°N, 96.56°W
Report Text: KLNK 272054Z 13010KT 10SM CLR M01/M11 A3033 RMK AO2 SLP287 T10061106 56045
Loading
Personal Weather Stations






























Interactive Weather Map New forecast layout! Learn more

10-Day Weather Forecast

Advertisements
Track Severe Weather on mobile